sensor_id;sensor_type;location;lat;lon;timestamp;temperature;humidity
64685;DHT22;51109;47.414;18.954;2022-09-16T00:02:18;17.60;99.90
64685;DHT22;51109;47.414;18.954;2022-09-16T00:04:44;17.60;99.90
64685;DHT22;51109;47.414;18.954;2022-09-16T00:07:10;17.50;99.90
64685;DHT22;51109;47.414;18.954;2022-09-16T00:09:36;17.40;99.90
64685;DHT22;51109;47.414;18.954;2022-09-16T00:12:04;17.40;99.90
64685;DHT22;51109;47.414;18.954;2022-09-16T00:14:30;17.40;99.90
64685;DHT22;51109;47.414;18.954;2022-09-16T00:16:56;17.40;99.90
64685;DHT22;51109;47.414;18.954;2022-09-16T00:19:22;17.40;99.90
64685;DHT22;51109;47.414;18.954;2022-09-16T00:21:48;17.40;99.90
64685;DHT22;51109;47.414;18.954;2022-09-16T00:24:15;17.50;99.90
64685;DHT22;51109;47.414;18.954;2022-09-16T00:26:44;17.40;99.90
64685;DHT22;51109;47.414;18.954;2022-09-16T00:29:10;17.40;99.90
64685;DHT22;51109;47.414;18.954;2022-09-16T00:31:36;17.40;99.90
64685;DHT22;51109;47.414;18.954;2022-09-16T00:34:02;17.30;99.90
64685;DHT22;51109;47.414;18.954;2022-09-16T00:36:28;17.30;99.90
64685;DHT22;51109;47.414;18.954;2022-09-16T00:38:55;17.20;99.90
64685;DHT22;51109;47.414;18.954;2022-09-16T00:41:23;17.20;99.90
64685;DHT22;51109;47.414;18.954;2022-09-16T00:44:05;17.10;99.90
64685;DHT22;51109;47.414;18.954;2022-09-16T00:46:44;17.10;99.90
64685;DHT22;51109;47.414;18.954;2022-09-16T00:49:24;17.00;99.90
64685;DHT22;51109;47.414;18.954;2022-09-16T00:51:53;17.00;99.90
64685;DHT22;51109;47.414;18.954;2022-09-16T00:54:22;16.90;99.90
64685;DHT22;51109;47.414;18.954;2022-09-16T00:56:51;16.80;99.90
64685;DHT22;51109;47.414;18.954;2022-09-16T00:59:31;16.80;99.90
64685;DHT22;51109;47.414;18.954;2022-09-16T01:02:01;16.70;99.90
64685;DHT22;51109;47.414;18.954;2022-09-16T01:04:33;16.70;99.90
64685;DHT22;51109;47.414;18.954;2022-09-16T01:07:00;16.70;99.90
64685;DHT22;51109;47.414;18.954;2022-09-16T01:09:28;16.70;99.90
64685;DHT22;51109;47.414;18.954;2022-09-16T01:11:54;16.50;99.90
64685;DHT22;51109;47.414;18.954;2022-09-16T01:14:21;16.50;99.90
64685;DHT22;51109;47.414;18.954;2022-09-16T01:41:42;16.10;99.90
64685;DHT22;51109;47.414;18.954;2022-09-16T01:44:14;16.10;99.90
64685;DHT22;51109;47.414;18.954;2022-09-16T01:47:01;16.00;99.90
64685;DHT22;51109;47.414;18.954;2022-09-16T01:52:34;16.00;99.90
64685;DHT22;51109;47.414;18.954;2022-09-16T01:55:14;16.10;99.90
64685;DHT22;51109;47.414;18.954;2022-09-16T01:57:57;16.20;99.90
64685;DHT22;51109;47.414;18.954;2022-09-16T02:00:26;16.20;99.90
64685;DHT22;51109;47.414;18.954;2022-09-16T02:03:06;16.30;99.90
64685;DHT22;51109;47.414;18.954;2022-09-16T02:05:36;16.30;99.90
64685;DHT22;51109;47.414;18.954;2022-09-16T02:08:17;16.30;99.90
64685;DHT22;51109;47.414;18.954;2022-09-16T02:11:07;16.40;99.90
64685;DHT22;51109;47.414;18.954;2022-09-16T02:13:36;16.50;99.90
64685;DHT22;51109;47.414;18.954;2022-09-16T02:16:15;16.40;99.90
64685;DHT22;51109;47.414;18.954;2022-09-16T02:18:45;16.50;99.90
64685;DHT22;51109;47.414;18.954;2022-09-16T02:21:14;16.60;99.90
64685;DHT22;51109;47.414;18.954;2022-09-16T02:23:45;16.50;99.90
64685;DHT22;51109;47.414;18.954;2022-09-16T02:26:14;16.60;99.90
64685;DHT22;51109;47.414;18.954;2022-09-16T02:28:45;16.70;99.90
64685;DHT22;51109;47.414;18.954;2022-09-16T02:31:12;16.60;99.90
64685;DHT22;51109;47.414;18.954;2022-09-16T02:33:59;16.60;99.90
64685;DHT22;51109;47.414;18.954;2022-09-16T02:36:26;16.60;99.90
64685;DHT22;51109;47.414;18.954;2022-09-16T02:39:01;16.60;99.90
64685;DHT22;51109;47.414;18.954;2022-09-16T02:41:30;16.60;99.90
64685;DHT22;51109;47.414;18.954;2022-09-16T02:43:56;16.60;99.90
64685;DHT22;51109;47.414;18.954;2022-09-16T02:50:00;16.50;99.90
64685;DHT22;51109;47.414;18.954;2022-09-16T02:52:47;16.60;99.90
64685;DHT22;51109;47.414;18.954;2022-09-16T02:57:55;16.40;99.90
64685;DHT22;51109;47.414;18.954;2022-09-16T03:00:21;16.40;99.90
64685;DHT22;51109;47.414;18.954;2022-09-16T03:02:47;16.30;99.90
64685;DHT22;51109;47.414;18.954;2022-09-16T03:05:13;16.30;99.90
64685;DHT22;51109;47.414;18.954;2022-09-16T03:07:40;16.20;99.90
64685;DHT22;51109;47.414;18.954;2022-09-16T03:10:09;16.10;99.90
64685;DHT22;51109;47.414;18.954;2022-09-16T03:12:40;16.10;99.90
64685;DHT22;51109;47.414;18.954;2022-09-16T03:26:46;16.40;99.90
64685;DHT22;51109;47.414;18.954;2022-09-16T03:31:57;16.60;99.90
64685;DHT22;51109;47.414;18.954;2022-09-16T03:37:11;16.30;99.90
64685;DHT22;51109;47.414;18.954;2022-09-16T03:39:38;16.30;99.90
64685;DHT22;51109;47.414;18.954;2022-09-16T03:42:07;16.30;99.90
64685;DHT22;51109;47.414;18.954;2022-09-16T03:44:38;16.30;99.90
64685;DHT22;51109;47.414;18.954;2022-09-16T03:47:08;16.40;99.90
64685;DHT22;51109;47.414;18.954;2022-09-16T03:49:35;16.50;99.90
64685;DHT22;51109;47.414;18.954;2022-09-16T03:52:02;16.60;99.90
64685;DHT22;51109;47.414;18.954;2022-09-16T03:54:30;16.60;99.90
64685;DHT22;51109;47.414;18.954;2022-09-16T03:56:56;16.50;99.90
64685;DHT22;51109;47.414;18.954;2022-09-16T03:59:22;16.50;99.90
64685;DHT22;51109;47.414;18.954;2022-09-16T04:01:48;16.50;99.90
64685;DHT22;51109;47.414;18.954;2022-09-16T04:04:14;16.40;99.90
64685;DHT22;51109;47.414;18.954;2022-09-16T04:06:40;16.40;99.90
64685;DHT22;51109;47.414;18.954;2022-09-16T04:09:06;16.30;99.90
64685;DHT22;51109;47.414;18.954;2022-09-16T04:11:33;16.30;99.90
64685;DHT22;51109;47.414;18.954;2022-09-16T04:14:00;16.30;99.90
64685;DHT22;51109;47.414;18.954;2022-09-16T04:16:26;16.30;99.90
64685;DHT22;51109;47.414;18.954;2022-09-16T04:18:52;16.20;99.90
64685;DHT22;51109;47.414;18.954;2022-09-16T04:21:17;16.30;99.90
64685;DHT22;51109;47.414;18.954;2022-09-16T04:23:43;16.30;99.90
64685;DHT22;51109;47.414;18.954;2022-09-16T04:26:10;16.20;99.90
64685;DHT22;51109;47.414;18.954;2022-09-16T04:28:36;16.30;99.90
64685;DHT22;51109;47.414;18.954;2022-09-16T04:31:06;16.40;99.90
64685;DHT22;51109;47.414;18.954;2022-09-16T04:33:33;16.50;99.90
64685;DHT22;51109;47.414;18.954;2022-09-16T04:36:04;16.40;99.90
64685;DHT22;51109;47.414;18.954;2022-09-16T04:38:30;16.40;99.90
64685;DHT22;51109;47.414;18.954;2022-09-16T04:41:04;16.50;99.90
64685;DHT22;51109;47.414;18.954;2022-09-16T04:43:31;16.50;99.90
64685;DHT22;51109;47.414;18.954;2022-09-16T04:45:57;16.50;99.90
64685;DHT22;51109;47.414;18.954;2022-09-16T04:48:23;16.60;99.90
64685;DHT22;51109;47.414;18.954;2022-09-16T04:50:51;16.70;99.90
64685;DHT22;51109;47.414;18.954;2022-09-16T04:53:17;16.60;99.90
64685;DHT22;51109;47.414;18.954;2022-09-16T04:55:44;16.50;99.90
64685;DHT22;51109;47.414;18.954;2022-09-16T04:58:11;16.40;99.90
64685;DHT22;51109;47.414;18.954;2022-09-16T05:00:37;16.40;99.90
64685;DHT22;51109;47.414;18.954;2022-09-16T05:03:02;16.40;99.90
64685;DHT22;51109;47.414;18.954;2022-09-16T05:05:28;16.30;99.90
64685;DHT22;51109;47.414;18.954;2022-09-16T05:07:54;16.20;99.90
64685;DHT22;51109;47.414;18.954;2022-09-16T05:10:20;16.20;99.90
64685;DHT22;51109;47.414;18.954;2022-09-16T05:12:52;16.20;99.90
64685;DHT22;51109;47.414;18.954;2022-09-16T05:15:19;16.30;99.90
64685;DHT22;51109;47.414;18.954;2022-09-16T05:17:45;16.30;99.90
64685;DHT22;51109;47.414;18.954;2022-09-16T05:20:11;16.10;99.90
64685;DHT22;51109;47.414;18.954;2022-09-16T05:22:38;16.20;99.90
64685;DHT22;51109;47.414;18.954;2022-09-16T05:25:04;16.20;99.90
64685;DHT22;51109;47.414;18.954;2022-09-16T05:27:31;16.40;99.90
64685;DHT22;51109;47.414;18.954;2022-09-16T05:30:00;16.50;99.90
64685;DHT22;51109;47.414;18.954;2022-09-16T05:32:26;16.50;99.90
64685;DHT22;51109;47.414;18.954;2022-09-16T05:34:52;16.50;99.90
64685;DHT22;51109;47.414;18.954;2022-09-16T05:37:18;16.50;99.90
64685;DHT22;51109;47.414;18.954;2022-09-16T05:39:45;16.50;99.90
64685;DHT22;51109;47.414;18.954;2022-09-16T05:42:11;16.50;99.90
64685;DHT22;51109;47.414;18.954;2022-09-16T05:44:37;16.60;99.90
64685;DHT22;51109;47.414;18.954;2022-09-16T05:47:03;16.70;99.90
64685;DHT22;51109;47.414;18.954;2022-09-16T05:49:29;16.80;99.90
64685;DHT22;51109;47.414;18.954;2022-09-16T05:51:55;16.80;99.90
64685;DHT22;51109;47.414;18.954;2022-09-16T05:54:21;16.80;99.90
64685;DHT22;51109;47.414;18.954;2022-09-16T05:56:49;16.60;99.90
64685;DHT22;51109;47.414;18.954;2022-09-16T05:59:16;16.50;99.90
64685;DHT22;51109;47.414;18.954;2022-09-16T06:01:43;16.50;99.90
64685;DHT22;51109;47.414;18.954;2022-09-16T06:04:11;16.50;99.90
64685;DHT22;51109;47.414;18.954;2022-09-16T06:06:39;16.50;99.90
64685;DHT22;51109;47.414;18.954;2022-09-16T06:11:41;16.50;99.90
64685;DHT22;51109;47.414;18.954;2022-09-16T06:14:08;16.60;99.90
64685;DHT22;51109;47.414;18.954;2022-09-16T06:16:35;16.50;99.90
64685;DHT22;51109;47.414;18.954;2022-09-16T06:19:03;16.50;99.90
64685;DHT22;51109;47.414;18.954;2022-09-16T06:21:30;16.70;99.90
64685;DHT22;51109;47.414;18.954;2022-09-16T06:23:56;16.80;99.90
64685;DHT22;51109;47.414;18.954;2022-09-16T06:26:24;17.00;99.90
64685;DHT22;51109;47.414;18.954;2022-09-16T06:28:51;17.00;99.90
64685;DHT22;51109;47.414;18.954;2022-09-16T06:31:23;17.00;99.90
64685;DHT22;51109;47.414;18.954;2022-09-16T06:33:49;17.00;99.90
64685;DHT22;51109;47.414;18.954;2022-09-16T06:36:18;17.00;99.90
64685;DHT22;51109;47.414;18.954;2022-09-16T06:38:45;17.10;99.90
64685;DHT22;51109;47.414;18.954;2022-09-16T06:41:12;17.10;99.90
64685;DHT22;51109;47.414;18.954;2022-09-16T06:43:39;17.00;99.90
64685;DHT22;51109;47.414;18.954;2022-09-16T06:46:11;17.00;99.90
64685;DHT22;51109;47.414;18.954;2022-09-16T06:48:48;16.90;99.90
64685;DHT22;51109;47.414;18.954;2022-09-16T06:51:22;16.80;99.90
64685;DHT22;51109;47.414;18.954;2022-09-16T06:53:49;16.80;99.90
64685;DHT22;51109;47.414;18.954;2022-09-16T06:56:17;16.90;99.90
64685;DHT22;51109;47.414;18.954;2022-09-16T06:58:45;16.90;99.90
64685;DHT22;51109;47.414;18.954;2022-09-16T07:01:20;16.90;99.90
64685;DHT22;51109;47.414;18.954;2022-09-16T07:03:48;17.00;99.90
64685;DHT22;51109;47.414;18.954;2022-09-16T07:06:15;17.00;99.90
64685;DHT22;51109;47.414;18.954;2022-09-16T07:08:42;16.80;99.90
64685;DHT22;51109;47.414;18.954;2022-09-16T07:11:14;16.80;99.90
64685;DHT22;51109;47.414;18.954;2022-09-16T07:13:41;16.70;99.90
64685;DHT22;51109;47.414;18.954;2022-09-16T07:16:13;16.90;99.90
64685;DHT22;51109;47.414;18.954;2022-09-16T07:18:40;17.00;99.90
64685;DHT22;51109;47.414;18.954;2022-09-16T07:21:07;17.10;99.90
64685;DHT22;51109;47.414;18.954;2022-09-16T07:23:35;17.10;99.90
64685;DHT22;51109;47.414;18.954;2022-09-16T07:26:02;17.10;99.90
64685;DHT22;51109;47.414;18.954;2022-09-16T07:28:29;17.20;99.90
64685;DHT22;51109;47.414;18.954;2022-09-16T07:30:58;17.30;99.90
64685;DHT22;51109;47.414;18.954;2022-09-16T07:33:24;17.30;99.90
64685;DHT22;51109;47.414;18.954;2022-09-16T07:35:50;17.30;99.90
64685;DHT22;51109;47.414;18.954;2022-09-16T07:38:16;17.20;99.90
64685;DHT22;51109;47.414;18.954;2022-09-16T07:40:42;17.30;99.90
64685;DHT22;51109;47.414;18.954;2022-09-16T07:43:08;17.30;99.90
64685;DHT22;51109;47.414;18.954;2022-09-16T07:45:34;17.30;99.90
64685;DHT22;51109;47.414;18.954;2022-09-16T07:48:00;17.20;99.90
64685;DHT22;51109;47.414;18.954;2022-09-16T07:50:26;17.20;99.90
64685;DHT22;51109;47.414;18.954;2022-09-16T07:52:55;17.20;99.90
64685;DHT22;51109;47.414;18.954;2022-09-16T07:55:21;17.20;99.90
64685;DHT22;51109;47.414;18.954;2022-09-16T07:57:50;17.10;99.90
64685;DHT22;51109;47.414;18.954;2022-09-16T08:00:16;17.00;99.90
64685;DHT22;51109;47.414;18.954;2022-09-16T08:02:42;16.90;99.90
64685;DHT22;51109;47.414;18.954;2022-09-16T08:05:08;17.00;99.90
64685;DHT22;51109;47.414;18.954;2022-09-16T08:07:36;17.00;99.90
64685;DHT22;51109;47.414;18.954;2022-09-16T08:10:03;17.10;99.90
64685;DHT22;51109;47.414;18.954;2022-09-16T08:12:29;17.10;99.90
64685;DHT22;51109;47.414;18.954;2022-09-16T08:14:59;17.00;99.90
64685;DHT22;51109;47.414;18.954;2022-09-16T08:17:25;17.00;99.90
64685;DHT22;51109;47.414;18.954;2022-09-16T08:19:52;16.90;99.90
64685;DHT22;51109;47.414;18.954;2022-09-16T08:22:18;16.80;99.90
64685;DHT22;51109;47.414;18.954;2022-09-16T08:24:44;16.80;99.90
64685;DHT22;51109;47.414;18.954;2022-09-16T08:27:10;16.80;99.90
64685;DHT22;51109;47.414;18.954;2022-09-16T08:29:36;16.70;99.90
64685;DHT22;51109;47.414;18.954;2022-09-16T08:32:02;16.70;99.90
64685;DHT22;51109;47.414;18.954;2022-09-16T08:34:28;16.80;99.90
64685;DHT22;51109;47.414;18.954;2022-09-16T08:36:54;16.80;99.90
64685;DHT22;51109;47.414;18.954;2022-09-16T08:39:19;16.70;99.90
64685;DHT22;51109;47.414;18.954;2022-09-16T08:44:52;16.80;99.90
64685;DHT22;51109;47.414;18.954;2022-09-16T08:47:34;16.90;99.90
64685;DHT22;51109;47.414;18.954;2022-09-16T08:50:12;17.00;99.90
64685;DHT22;51109;47.414;18.954;2022-09-16T08:52:40;17.10;99.90
64685;DHT22;51109;47.414;18.954;2022-09-16T08:55:32;17.20;99.90
64685;DHT22;51109;47.414;18.954;2022-09-16T08:58:26;17.30;99.90
64685;DHT22;51109;47.414;18.954;2022-09-16T09:00:58;17.30;99.90
64685;DHT22;51109;47.414;18.954;2022-09-16T09:03:37;17.40;99.90
64685;DHT22;51109;47.414;18.954;2022-09-16T09:08:50;17.60;99.90
64685;DHT22;51109;47.414;18.954;2022-09-16T09:11:49;17.60;99.90
64685;DHT22;51109;47.414;18.954;2022-09-16T09:17:01;17.50;99.90
64685;DHT22;51109;47.414;18.954;2022-09-16T09:19:47;17.50;99.90
64685;DHT22;51109;47.414;18.954;2022-09-16T09:22:25;17.50;99.90
64685;DHT22;51109;47.414;18.954;2022-09-16T09:27:41;17.50;99.90
64685;DHT22;51109;47.414;18.954;2022-09-16T09:30:23;17.50;99.90
64685;DHT22;51109;47.414;18.954;2022-09-16T09:41:23;17.50;99.90
64685;DHT22;51109;47.414;18.954;2022-09-16T09:44:04;17.50;99.90
64685;DHT22;51109;47.414;18.954;2022-09-16T09:46:39;17.50;99.90
64685;DHT22;51109;47.414;18.954;2022-09-16T09:49:31;17.50;99.90
64685;DHT22;51109;47.414;18.954;2022-09-16T09:52:10;17.70;99.90
64685;DHT22;51109;47.414;18.954;2022-09-16T09:54:42;17.70;99.90
64685;DHT22;51109;47.414;18.954;2022-09-16T09:57:29;17.60;99.90
64685;DHT22;51109;47.414;18.954;2022-09-16T10:00:04;17.60;99.90
64685;DHT22;51109;47.414;18.954;2022-09-16T10:02:38;17.80;99.90
64685;DHT22;51109;47.414;18.954;2022-09-16T10:05:05;17.80;99.90
64685;DHT22;51109;47.414;18.954;2022-09-16T10:07:36;17.90;99.90
64685;DHT22;51109;47.414;18.954;2022-09-16T10:10:15;18.00;99.90
64685;DHT22;51109;47.414;18.954;2022-09-16T10:12:41;18.10;99.90
64685;DHT22;51109;47.414;18.954;2022-09-16T10:15:27;18.20;99.90
64685;DHT22;51109;47.414;18.954;2022-09-16T10:17:54;18.40;99.90
64685;DHT22;51109;47.414;18.954;2022-09-16T10:20:36;18.40;99.90
64685;DHT22;51109;47.414;18.954;2022-09-16T10:23:11;18.50;99.90
64685;DHT22;51109;47.414;18.954;2022-09-16T10:25:39;18.50;99.90
64685;DHT22;51109;47.414;18.954;2022-09-16T10:28:23;18.60;99.90
64685;DHT22;51109;47.414;18.954;2022-09-16T10:30:54;18.50;99.90
64685;DHT22;51109;47.414;18.954;2022-09-16T10:35:58;18.60;99.90
64685;DHT22;51109;47.414;18.954;2022-09-16T10:38:53;18.70;99.90
64685;DHT22;51109;47.414;18.954;2022-09-16T10:41:49;18.80;99.90
64685;DHT22;51109;47.414;18.954;2022-09-16T10:44:24;18.80;99.90
64685;DHT22;51109;47.414;18.954;2022-09-16T10:47:05;18.80;99.90
64685;DHT22;51109;47.414;18.954;2022-09-16T10:49:50;18.80;99.90
64685;DHT22;51109;47.414;18.954;2022-09-16T10:54:48;18.80;99.90
64685;DHT22;51109;47.414;18.954;2022-09-16T10:57:29;18.70;99.90
64685;DHT22;51109;47.414;18.954;2022-09-16T11:00:24;18.80;99.90
64685;DHT22;51109;47.414;18.954;2022-09-16T11:03:24;18.80;99.90
64685;DHT22;51109;47.414;18.954;2022-09-16T11:09:12;18.90;99.90
64685;DHT22;51109;47.414;18.954;2022-09-16T11:15:04;18.90;99.90
64685;DHT22;51109;47.414;18.954;2022-09-16T11:26:25;19.10;99.90
64685;DHT22;51109;47.414;18.954;2022-09-16T11:31:56;19.30;99.90
64685;DHT22;51109;47.414;18.954;2022-09-16T11:42:28;19.20;99.90
64685;DHT22;51109;47.414;18.954;2022-09-16T11:53:45;19.30;99.90
64685;DHT22;51109;47.414;18.954;2022-09-16T11:56:18;19.30;99.90
64685;DHT22;51109;47.414;18.954;2022-09-16T11:58:55;19.20;99.90
64685;DHT22;51109;47.414;18.954;2022-09-16T12:01:34;19.30;99.90
64685;DHT22;51109;47.414;18.954;2022-09-16T12:04:11;19.30;99.90
64685;DHT22;51109;47.414;18.954;2022-09-16T12:06:50;19.40;99.90
64685;DHT22;51109;47.414;18.954;2022-09-16T12:09:23;19.40;99.90
64685;DHT22;51109;47.414;18.954;2022-09-16T12:11:55;19.50;99.90
64685;DHT22;51109;47.414;18.954;2022-09-16T12:14:28;19.50;99.90
64685;DHT22;51109;47.414;18.954;2022-09-16T12:17:27;19.50;99.90
64685;DHT22;51109;47.414;18.954;2022-09-16T12:19:58;19.60;99.90
64685;DHT22;51109;47.414;18.954;2022-09-16T12:22:30;19.60;99.90
64685;DHT22;51109;47.414;18.954;2022-09-16T12:30:18;19.70;99.90
64685;DHT22;51109;47.414;18.954;2022-09-16T12:35:40;19.60;99.90
64685;DHT22;51109;47.414;18.954;2022-09-16T12:38:15;19.60;99.90
64685;DHT22;51109;47.414;18.954;2022-09-16T12:57:02;19.30;99.90
64685;DHT22;51109;47.414;18.954;2022-09-16T13:02:22;19.40;99.90
64685;DHT22;51109;47.414;18.954;2022-09-16T13:04:53;19.50;99.90
64685;DHT22;51109;47.414;18.954;2022-09-16T13:07:33;19.50;99.90
64685;DHT22;51109;47.414;18.954;2022-09-16T13:10:15;19.50;99.90
64685;DHT22;51109;47.414;18.954;2022-09-16T13:12:41;19.50;99.90
64685;DHT22;51109;47.414;18.954;2022-09-16T13:15:35;19.50;99.90
64685;DHT22;51109;47.414;18.954;2022-09-16T13:20:57;19.40;99.90
64685;DHT22;51109;47.414;18.954;2022-09-16T13:23:28;19.40;99.90
64685;DHT22;51109;47.414;18.954;2022-09-16T13:26:06;19.40;99.90
64685;DHT22;51109;47.414;18.954;2022-09-16T13:33:41;19.40;99.90
64685;DHT22;51109;47.414;18.954;2022-09-16T13:38:48;19.40;99.90
64685;DHT22;51109;47.414;18.954;2022-09-16T13:43:53;19.50;99.90
64685;DHT22;51109;47.414;18.954;2022-09-16T13:46:34;19.30;99.90
64685;DHT22;51109;47.414;18.954;2022-09-16T13:52:42;19.30;99.90
64685;DHT22;51109;47.414;18.954;2022-09-16T13:55:25;19.30;99.90
64685;DHT22;51109;47.414;18.954;2022-09-16T13:58:09;19.20;99.90
64685;DHT22;51109;47.414;18.954;2022-09-16T14:14:57;19.40;99.90
64685;DHT22;51109;47.414;18.954;2022-09-16T14:17:25;19.30;99.90
64685;DHT22;51109;47.414;18.954;2022-09-16T14:19:59;19.30;99.90
64685;DHT22;51109;47.414;18.954;2022-09-16T14:22:25;19.40;99.90
64685;DHT22;51109;47.414;18.954;2022-09-16T14:24:53;19.30;99.90
64685;DHT22;51109;47.414;18.954;2022-09-16T14:27:27;19.30;99.90
64685;DHT22;51109;47.414;18.954;2022-09-16T14:29:58;19.20;99.90
64685;DHT22;51109;47.414;18.954;2022-09-16T14:32:30;19.20;99.90
64685;DHT22;51109;47.414;18.954;2022-09-16T14:35:00;19.10;99.90
64685;DHT22;51109;47.414;18.954;2022-09-16T14:37:29;19.00;99.90
64685;DHT22;51109;47.414;18.954;2022-09-16T14:40:03;18.90;99.90
64685;DHT22;51109;47.414;18.954;2022-09-16T14:42:30;18.90;99.90
64685;DHT22;51109;47.414;18.954;2022-09-16T14:44:57;18.90;99.90
64685;DHT22;51109;47.414;18.954;2022-09-16T14:50:01;18.80;99.90
64685;DHT22;51109;47.414;18.954;2022-09-16T14:52:30;18.70;99.90
64685;DHT22;51109;47.414;18.954;2022-09-16T14:54:56;18.60;99.90
64685;DHT22;51109;47.414;18.954;2022-09-16T14:57:27;18.50;99.90
64685;DHT22;51109;47.414;18.954;2022-09-16T14:59:57;18.50;99.90
64685;DHT22;51109;47.414;18.954;2022-09-16T15:05:36;18.40;99.90
64685;DHT22;51109;47.414;18.954;2022-09-16T15:08:30;18.40;99.90
64685;DHT22;51109;47.414;18.954;2022-09-16T15:11:09;18.40;99.90
64685;DHT22;51109;47.414;18.954;2022-09-16T15:13:37;18.40;99.90
64685;DHT22;51109;47.414;18.954;2022-09-16T15:16:15;18.30;99.90
64685;DHT22;51109;47.414;18.954;2022-09-16T15:18:58;18.30;99.90
64685;DHT22;51109;47.414;18.954;2022-09-16T15:21:31;18.30;99.90
64685;DHT22;51109;47.414;18.954;2022-09-16T15:24:01;18.30;99.90
64685;DHT22;51109;47.414;18.954;2022-09-16T15:31:45;18.30;99.90
64685;DHT22;51109;47.414;18.954;2022-09-16T15:36:45;18.30;99.90
64685;DHT22;51109;47.414;18.954;2022-09-16T15:39:31;18.30;99.90
64685;DHT22;51109;47.414;18.954;2022-09-16T15:42:16;18.30;99.90
64685;DHT22;51109;47.414;18.954;2022-09-16T15:44:55;18.30;99.90
64685;DHT22;51109;47.414;18.954;2022-09-16T15:47:30;18.40;99.90
64685;DHT22;51109;47.414;18.954;2022-09-16T15:50:12;18.40;99.90
64685;DHT22;51109;47.414;18.954;2022-09-16T15:52:50;18.40;99.90
64685;DHT22;51109;47.414;18.954;2022-09-16T16:01:02;18.20;99.90
64685;DHT22;51109;47.414;18.954;2022-09-16T16:03:51;18.00;99.90
64685;DHT22;51109;47.414;18.954;2022-09-16T16:06:18;17.90;99.90
64685;DHT22;51109;47.414;18.954;2022-09-16T16:08:48;18.00;99.90
64685;DHT22;51109;47.414;18.954;2022-09-16T16:11:19;17.90;99.90
64685;DHT22;51109;47.414;18.954;2022-09-16T16:13:45;17.90;99.90
64685;DHT22;51109;47.414;18.954;2022-09-16T16:16:13;17.90;99.90
64685;DHT22;51109;47.414;18.954;2022-09-16T16:18:41;18.00;99.90
64685;DHT22;51109;47.414;18.954;2022-09-16T16:21:11;18.00;99.90
64685;DHT22;51109;47.414;18.954;2022-09-16T16:23:37;18.00;99.90
64685;DHT22;51109;47.414;18.954;2022-09-16T16:26:06;18.00;99.90
64685;DHT22;51109;47.414;18.954;2022-09-16T16:28:33;18.00;99.90
64685;DHT22;51109;47.414;18.954;2022-09-16T16:33:46;18.00;99.90
64685;DHT22;51109;47.414;18.954;2022-09-16T16:36:14;18.00;99.90
64685;DHT22;51109;47.414;18.954;2022-09-16T16:38:41;18.00;99.90
64685;DHT22;51109;47.414;18.954;2022-09-16T16:41:07;18.10;99.90
64685;DHT22;51109;47.414;18.954;2022-09-16T16:43:34;18.00;99.90
64685;DHT22;51109;47.414;18.954;2022-09-16T16:46:00;18.00;99.90
64685;DHT22;51109;47.414;18.954;2022-09-16T16:48:29;17.90;99.90
64685;DHT22;51109;47.414;18.954;2022-09-16T16:53:21;18.00;99.90
64685;DHT22;51109;47.414;18.954;2022-09-16T16:55:47;18.00;99.90
64685;DHT22;51109;47.414;18.954;2022-09-16T16:58:13;17.90;99.90
64685;DHT22;51109;47.414;18.954;2022-09-16T17:00:39;17.80;99.90
64685;DHT22;51109;47.414;18.954;2022-09-16T17:03:05;17.80;99.90
64685;DHT22;51109;47.414;18.954;2022-09-16T17:05:30;17.90;99.90
64685;DHT22;51109;47.414;18.954;2022-09-16T17:07:56;17.90;99.90
64685;DHT22;51109;47.414;18.954;2022-09-16T17:10:22;18.00;99.90
64685;DHT22;51109;47.414;18.954;2022-09-16T17:12:48;18.00;99.90
64685;DHT22;51109;47.414;18.954;2022-09-16T17:15:14;17.80;99.90
64685;DHT22;51109;47.414;18.954;2022-09-16T17:17:40;17.70;99.90
64685;DHT22;51109;47.414;18.954;2022-09-16T17:20:09;17.80;99.90
64685;DHT22;51109;47.414;18.954;2022-09-16T17:22:35;17.80;99.90
64685;DHT22;51109;47.414;18.954;2022-09-16T17:25:01;17.70;99.90
64685;DHT22;51109;47.414;18.954;2022-09-16T17:27:27;17.70;99.90
64685;DHT22;51109;47.414;18.954;2022-09-16T17:29:54;17.70;99.90
64685;DHT22;51109;47.414;18.954;2022-09-16T17:32:20;17.70;99.90
64685;DHT22;51109;47.414;18.954;2022-09-16T17:34:46;17.70;99.90
64685;DHT22;51109;47.414;18.954;2022-09-16T17:37:11;17.80;99.90
64685;DHT22;51109;47.414;18.954;2022-09-16T17:39:40;17.70;99.90
64685;DHT22;51109;47.414;18.954;2022-09-16T17:42:06;17.70;99.90
64685;DHT22;51109;47.414;18.954;2022-09-16T17:44:32;17.70;99.90
64685;DHT22;51109;47.414;18.954;2022-09-16T17:46:58;17.60;99.90
64685;DHT22;51109;47.414;18.954;2022-09-16T17:49:24;17.40;99.90
64685;DHT22;51109;47.414;18.954;2022-09-16T17:51:51;17.30;99.90
64685;DHT22;51109;47.414;18.954;2022-09-16T17:54:18;17.30;99.90
64685;DHT22;51109;47.414;18.954;2022-09-16T17:56:44;17.30;99.90
64685;DHT22;51109;47.414;18.954;2022-09-16T17:59:12;17.30;99.90
64685;DHT22;51109;47.414;18.954;2022-09-16T18:01:39;17.30;99.90
64685;DHT22;51109;47.414;18.954;2022-09-16T18:04:04;17.20;99.90
64685;DHT22;51109;47.414;18.954;2022-09-16T18:06:34;17.30;99.90
64685;DHT22;51109;47.414;18.954;2022-09-16T18:09:04;17.30;99.90
64685;DHT22;51109;47.414;18.954;2022-09-16T18:11:32;17.30;99.90
64685;DHT22;51109;47.414;18.954;2022-09-16T18:13:59;17.30;99.90
64685;DHT22;51109;47.414;18.954;2022-09-16T18:16:27;17.30;99.90
64685;DHT22;51109;47.414;18.954;2022-09-16T18:18:56;17.20;99.90
64685;DHT22;51109;47.414;18.954;2022-09-16T18:21:26;17.30;99.90
64685;DHT22;51109;47.414;18.954;2022-09-16T18:23:54;17.30;99.90
64685;DHT22;51109;47.414;18.954;2022-09-16T18:26:20;17.40;99.90
64685;DHT22;51109;47.414;18.954;2022-09-16T18:28:48;17.40;99.90
64685;DHT22;51109;47.414;18.954;2022-09-16T18:31:17;17.30;99.90
64685;DHT22;51109;47.414;18.954;2022-09-16T18:33:43;17.30;99.90
64685;DHT22;51109;47.414;18.954;2022-09-16T18:36:11;17.30;99.90
64685;DHT22;51109;47.414;18.954;2022-09-16T18:38:38;17.20;99.90
64685;DHT22;51109;47.414;18.954;2022-09-16T18:41:11;17.20;99.90
64685;DHT22;51109;47.414;18.954;2022-09-16T18:43:39;17.10;99.90
64685;DHT22;51109;47.414;18.954;2022-09-16T18:46:16;17.00;99.90
64685;DHT22;51109;47.414;18.954;2022-09-16T18:48:43;17.00;99.90
64685;DHT22;51109;47.414;18.954;2022-09-16T18:53:47;17.00;99.90
64685;DHT22;51109;47.414;18.954;2022-09-16T18:56:15;17.00;99.90